createdAt,value
2018-07-25T00:01:30.672Z,10.57
2018-07-25T00:04:01.757Z,10.53
2018-07-25T00:06:32.510Z,10.47
2018-07-25T00:09:04.108Z,10.87
2018-07-25T00:11:35.780Z,10.17
2018-07-25T00:14:05.606Z,10.57
2018-07-25T00:16:37.153Z,10.10
2018-07-25T00:19:08.490Z,10.30
2018-07-25T00:21:40.038Z,10.23
2018-07-25T00:24:11.040Z,10.57
2018-07-25T00:26:42.799Z,10.70
2018-07-25T00:29:14.460Z,11.00
2018-07-25T00:31:46.288Z,11.57
2018-07-25T00:34:16.913Z,11.00
2018-07-25T00:36:49.255Z,11.20
2018-07-25T00:39:20.234Z,11.27
2018-07-25T00:41:52.825Z,12.10
2018-07-25T00:44:23.591Z,12.00
2018-07-25T00:46:55.308Z,11.37
2018-07-25T00:49:27.003Z,10.23
2018-07-25T00:51:58.126Z,10.47
2018-07-25T00:54:29.728Z,12.07
2018-07-25T00:57:01.412Z,11.20
2018-07-25T00:59:32.916Z,10.73
2018-07-25T01:02:04.201Z,11.37
2018-07-25T01:04:36.114Z,11.13
2018-07-25T01:07:07.747Z,11.17
2018-07-25T01:09:37.920Z,11.50
2018-07-25T01:12:09.160Z,11.57
2018-07-25T01:14:40.119Z,12.07
2018-07-25T01:17:18.046Z,12.33
2018-07-25T01:19:49.210Z,11.73
2018-07-25T01:22:20.494Z,11.93
2018-07-25T01:24:52.023Z,12.03
2018-07-25T01:27:24.333Z,12.93
2018-07-25T01:29:55.649Z,11.57
2018-07-25T01:32:26.399Z,11.90
2018-07-25T01:34:57.725Z,11.40
2018-07-25T01:37:28.117Z,10.87
2018-07-25T01:39:59.660Z,11.80
2018-07-25T01:42:31.559Z,12.50
2018-07-25T01:45:03.628Z,13.40
2018-07-25T01:47:35.753Z,12.40
2018-07-25T01:50:06.669Z,12.00
2018-07-25T01:52:37.900Z,12.40
2018-07-25T01:55:09.674Z,11.60
2018-07-25T01:57:41.050Z,11.97
2018-07-25T02:00:10.991Z,11.27
2018-07-25T02:02:42.615Z,12.53
2018-07-25T02:05:13.536Z,11.77
2018-07-25T02:07:44.848Z,12.00
2018-07-25T02:10:16.149Z,12.00
2018-07-25T02:12:46.281Z,11.40
2018-07-25T02:15:17.739Z,11.80
2018-07-25T02:17:48.466Z,11.90
2018-07-25T02:20:19.224Z,14.00
2018-07-25T02:22:49.832Z,13.33
2018-07-25T02:25:21.336Z,11.20
2018-07-25T02:27:53.076Z,12.23
2018-07-25T02:30:25.462Z,12.20
2018-07-25T02:32:56.085Z,12.83
2018-07-25T02:35:27.459Z,12.23
2018-07-25T02:37:58.804Z,11.50
2018-07-25T02:40:30.403Z,11.93
2018-07-25T02:43:01.111Z,12.37
2018-07-25T02:45:37.418Z,12.00
2018-07-25T02:48:09.339Z,11.00
2018-07-25T02:50:40.467Z,12.03
2018-07-25T02:53:12.476Z,10.93
2018-07-25T02:55:44.396Z,11.30
2018-07-25T02:58:14.800Z,11.30
2018-07-25T03:00:44.991Z,11.20
2018-07-25T03:03:15.765Z,11.90
2018-07-25T03:05:47.366Z,11.10
2018-07-25T03:08:18.977Z,11.43
2018-07-25T03:10:55.068Z,12.40
2018-07-25T03:13:26.462Z,10.63
2018-07-25T03:16:06.540Z,10.63
2018-07-25T03:18:37.385Z,10.23
2018-07-25T03:21:08.394Z,11.43
2018-07-25T03:23:39.022Z,11.33
2018-07-25T03:26:10.550Z,11.37
2018-07-25T03:28:42.030Z,11.00
2018-07-25T03:31:13.934Z,11.07
2018-07-25T03:33:44.784Z,10.53
2018-07-25T03:36:16.608Z,11.30
2018-07-25T03:38:48.330Z,10.90
2018-07-25T03:41:19.485Z,10.87
2018-07-25T03:43:50.670Z,10.77
2018-07-25T03:46:23.035Z,11.10
2018-07-25T03:48:53.492Z,11.10
2018-07-25T03:51:24.669Z,11.47
2018-07-25T03:53:55.653Z,10.27
2018-07-25T03:56:26.894Z,11.07
2018-07-25T03:58:58.764Z,11.90
2018-07-25T04:01:28.821Z,11.67
2018-07-25T04:04:00.047Z,10.80
2018-07-25T04:06:32.015Z,11.57
2018-07-25T04:09:02.968Z,9.93
2018-07-25T04:11:33.330Z,12.13
2018-07-25T04:14:04.483Z,11.57
2018-07-25T04:16:36.433Z,12.27
2018-07-25T04:19:07.852Z,11.47
2018-07-25T04:21:39.932Z,12.53
2018-07-25T04:24:10.770Z,11.60
2018-07-25T04:26:42.308Z,12.60
2018-07-25T04:29:14.327Z,11.67
2018-07-25T04:31:46.280Z,12.40
2018-07-25T04:34:18.109Z,11.80
2018-07-25T04:36:50.827Z,12.07
2018-07-25T04:39:22.403Z,12.40
2018-07-25T04:41:54.049Z,12.57
2018-07-25T04:44:24.780Z,11.33
2018-07-25T04:46:56.222Z,13.00
2018-07-25T04:49:26.718Z,11.83
2018-07-25T04:51:59.019Z,12.10
2018-07-25T04:54:29.920Z,11.10
2018-07-25T04:57:00.902Z,12.73
2018-07-25T04:59:31.115Z,11.00
2018-07-25T05:02:02.206Z,12.00
2018-07-25T05:04:33.520Z,10.73
2018-07-25T05:07:06.004Z,10.93
2018-07-25T05:09:36.987Z,11.07
2018-07-25T05:12:09.981Z,12.10
2018-07-25T05:14:42.289Z,11.53
2018-07-25T05:17:13.492Z,10.50
2018-07-25T05:19:43.517Z,11.23
2018-07-25T05:22:14.155Z,11.40
2018-07-25T05:24:44.457Z,11.60
2018-07-25T05:27:15.974Z,9.93
2018-07-25T05:29:47.270Z,11.60
2018-07-25T05:32:18.476Z,10.40
2018-07-25T05:34:49.778Z,10.97
2018-07-25T05:37:23.073Z,11.90
2018-07-25T05:39:54.263Z,12.03
2018-07-25T05:42:27.856Z,12.27
2018-07-25T05:44:59.119Z,11.83
2018-07-25T05:47:30.401Z,11.23
2018-07-25T05:50:01.421Z,12.20
2018-07-25T05:52:33.758Z,11.20
2018-07-25T05:55:04.942Z,11.87
2018-07-25T05:57:37.083Z,11.40
2018-07-25T06:00:08.190Z,11.03
2018-07-25T06:02:38.751Z,11.03
2018-07-25T06:05:10.183Z,11.43
2018-07-25T06:07:42.762Z,10.80
2018-07-25T06:10:14.237Z,10.80
2018-07-25T06:12:45.548Z,11.27
2018-07-25T06:15:16.495Z,10.77
2018-07-25T06:17:48.199Z,11.20
2018-07-25T06:20:19.858Z,11.37
2018-07-25T06:22:51.707Z,11.67
2018-07-25T06:25:22.815Z,11.30
2018-07-25T06:27:54.408Z,10.47
2018-07-25T06:30:25.252Z,10.10
2018-07-25T06:32:58.120Z,11.33
2018-07-25T06:35:29.726Z,12.03
2018-07-25T06:38:01.870Z,11.00
2018-07-25T06:40:32.498Z,9.60
2018-07-25T06:43:03.742Z,9.90
2018-07-25T06:45:35.082Z,10.20
2018-07-25T06:48:06.451Z,12.93
2018-07-25T06:50:36.716Z,10.67
2018-07-25T06:53:08.003Z,9.93
2018-07-25T06:55:40.399Z,9.43
2018-07-25T06:58:12.995Z,10.50
2018-07-25T07:00:43.844Z,10.93
2018-07-25T07:03:15.902Z,10.70
2018-07-25T07:05:47.576Z,9.83
2018-07-25T07:08:19.403Z,9.80
2018-07-25T07:10:50.503Z,9.87
2018-07-25T07:13:21.789Z,9.70
2018-07-25T07:15:52.065Z,10.53
2018-07-25T07:18:22.917Z,10.20
2018-07-25T07:20:53.923Z,10.20
2018-07-25T07:23:24.560Z,9.50
2018-07-25T07:25:55.622Z,9.10
2018-07-25T07:28:26.872Z,9.40
2018-07-25T07:30:57.233Z,9.00
2018-07-25T07:33:28.848Z,9.33
2018-07-25T07:35:59.748Z,9.43
2018-07-25T07:38:31.524Z,10.00
2018-07-25T07:41:02.454Z,9.97
2018-07-25T07:43:34.090Z,9.30
2018-07-25T07:46:05.981Z,10.10
2018-07-25T07:48:37.179Z,10.50
2018-07-25T07:51:09.179Z,10.70
2018-07-25T07:53:40.907Z,8.90
2018-07-25T07:56:12.374Z,9.33
2018-07-25T07:58:43.293Z,9.90
2018-07-25T08:01:13.702Z,8.90
2018-07-25T08:03:46.261Z,9.00
2018-07-25T08:06:17.560Z,10.10
2018-07-25T08:08:49.392Z,9.77
2018-07-25T08:11:21.957Z,9.40
2018-07-25T08:13:52.900Z,9.40
2018-07-25T08:16:24.413Z,10.43
2018-07-25T08:18:55.669Z,9.37
2018-07-25T08:21:26.782Z,9.63
2018-07-25T08:23:57.885Z,9.03
2018-07-25T08:26:29.460Z,8.67
2018-07-25T08:29:00.098Z,9.60
2018-07-25T08:31:30.871Z,8.93
2018-07-25T08:34:02.053Z,8.13
2018-07-25T08:36:32.600Z,9.00
2018-07-25T08:39:03.203Z,8.23
2018-07-25T08:41:34.650Z,8.57
2018-07-25T08:44:06.224Z,8.03
2018-07-25T08:46:37.282Z,8.40
2018-07-25T08:49:08.235Z,7.37
2018-07-25T08:51:39.597Z,8.33
2018-07-25T08:54:11.062Z,7.60
2018-07-25T08:56:41.575Z,7.77
2018-07-25T08:59:16.674Z,8.20
2018-07-25T09:01:47.856Z,7.90
2018-07-25T09:04:21.181Z,7.73
2018-07-25T09:06:52.582Z,8.27
2018-07-25T09:09:23.833Z,8.00
2018-07-25T09:11:54.939Z,7.80
2018-07-25T09:14:26.716Z,6.83
2018-07-25T09:16:57.272Z,7.87
2018-07-25T09:19:28.731Z,7.33
2018-07-25T09:21:59.523Z,7.27
2018-07-25T09:24:30.944Z,7.47
2018-07-25T09:27:03.211Z,7.80
2018-07-25T09:29:34.276Z,7.43
2018-07-25T09:32:05.191Z,7.63
2018-07-25T09:34:38.022Z,6.53
2018-07-25T09:37:08.971Z,7.30
2018-07-25T09:39:40.171Z,8.50
2018-07-25T09:42:11.241Z,8.00
2018-07-25T09:44:43.127Z,8.00
2018-07-25T09:47:14.029Z,7.20
2018-07-25T09:49:46.790Z,7.53
2018-07-25T09:52:19.095Z,7.70
2018-07-25T09:54:50.971Z,8.00
2018-07-25T09:57:22.479Z,7.73
2018-07-25T09:59:54.160Z,7.27
2018-07-25T10:02:26.097Z,7.73
2018-07-25T10:04:57.912Z,7.00
2018-07-25T10:07:30.810Z,7.60
2018-07-25T10:10:01.244Z,7.57
2018-07-25T10:12:31.934Z,7.53
2018-07-25T10:15:04.531Z,7.83
2018-07-25T10:17:36.049Z,7.30
2018-07-25T10:20:08.090Z,7.30
2018-07-25T10:22:39.810Z,7.97
2018-07-25T10:25:10.639Z,7.43
2018-07-25T10:27:41.406Z,8.10
2018-07-25T10:30:12.957Z,7.50
2018-07-25T10:32:44.275Z,7.97
2018-07-25T10:35:15.472Z,8.00
2018-07-25T10:37:46.176Z,8.67
2018-07-25T10:40:18.117Z,7.53
2018-07-25T10:42:49.331Z,7.80
2018-07-25T10:45:20.182Z,7.20
2018-07-25T10:47:51.873Z,7.50
2018-07-25T10:50:23.216Z,6.80
2018-07-25T10:52:54.673Z,7.40
2018-07-25T10:55:26.020Z,6.83
2018-07-25T10:57:57.030Z,6.60
2018-07-25T11:00:27.922Z,7.50
2018-07-25T11:02:59.892Z,7.17
2018-07-25T11:05:31.276Z,6.93
2018-07-25T11:08:02.829Z,7.43
2018-07-25T11:10:34.687Z,7.10
2018-07-25T11:13:05.241Z,7.20
2018-07-25T11:15:35.054Z,6.80
2018-07-25T11:18:05.995Z,6.43
2018-07-25T11:20:36.824Z,7.83
2018-07-25T11:23:08.286Z,6.57
2018-07-25T11:25:38.673Z,6.03
2018-07-25T11:28:09.992Z,7.00
2018-07-25T11:30:40.160Z,7.10
2018-07-25T11:33:11.562Z,7.07
2018-07-25T11:35:43.210Z,6.53
2018-07-25T11:38:13.951Z,6.70
2018-07-25T11:40:44.943Z,6.57
2018-07-25T11:43:16.068Z,6.00
2018-07-25T11:45:46.997Z,6.47
2018-07-25T11:48:17.849Z,6.97
2018-07-25T11:50:49.395Z,6.77
2018-07-25T11:53:19.813Z,6.30
2018-07-25T11:55:51.098Z,6.60
2018-07-25T11:58:22.619Z,6.20
2018-07-25T12:00:53.802Z,6.93
2018-07-25T12:03:26.748Z,7.10
2018-07-25T12:05:57.527Z,6.80
2018-07-25T12:08:28.342Z,6.30
2018-07-25T12:11:00.137Z,6.17
2018-07-25T12:13:31.496Z,6.73
2018-07-25T12:16:01.857Z,7.50
2018-07-25T12:18:33.276Z,7.00
2018-07-25T12:21:04.293Z,7.47
2018-07-25T12:23:35.075Z,7.30
2018-07-25T12:26:06.547Z,7.00
2018-07-25T12:28:39.225Z,7.20
2018-07-25T12:31:11.909Z,6.63
2018-07-25T12:33:43.392Z,6.70
2018-07-25T12:36:14.807Z,7.70
2018-07-25T12:38:45.964Z,7.00
2018-07-25T12:41:17.754Z,7.07
2018-07-25T12:43:48.126Z,6.90
2018-07-25T12:46:20.505Z,7.10
2018-07-25T12:48:52.476Z,7.10
2018-07-25T12:51:24.079Z,6.77
2018-07-25T12:53:55.163Z,7.30
2018-07-25T12:56:26.497Z,6.97
2018-07-25T12:58:56.217Z,6.90
2018-07-25T13:01:27.795Z,6.90
2018-07-25T13:03:58.715Z,7.03
2018-07-25T13:06:29.480Z,7.00
2018-07-25T13:09:00.130Z,7.53
2018-07-25T13:11:32.945Z,7.33
2018-07-25T13:14:03.685Z,6.50
2018-07-25T13:16:35.159Z,6.47
2018-07-25T13:19:06.790Z,6.97
2018-07-25T13:21:37.589Z,7.33
2018-07-25T13:24:08.439Z,6.67
2018-07-25T13:26:40.043Z,7.40
2018-07-25T13:29:11.233Z,7.97
2018-07-25T13:31:43.324Z,6.77
2018-07-25T13:34:15.921Z,7.40
2018-07-25T13:36:47.453Z,6.90
2018-07-25T13:39:19.069Z,6.20
2018-07-25T13:41:51.104Z,6.40
2018-07-25T13:44:22.296Z,5.40
2018-07-25T13:46:53.130Z,5.80
2018-07-25T13:49:24.305Z,6.37
2018-07-25T13:51:55.584Z,6.70
2018-07-25T13:54:26.828Z,6.80
2018-07-25T13:56:58.672Z,6.60
2018-07-25T13:59:29.545Z,6.20
2018-07-25T14:02:01.257Z,6.50
2018-07-25T14:04:31.794Z,5.90
2018-07-25T14:07:03.035Z,7.27
2018-07-25T14:09:35.044Z,6.93
2018-07-25T14:12:06.110Z,7.27
2018-07-25T14:14:37.338Z,6.53
2018-07-25T14:17:09.500Z,6.53
2018-07-25T14:19:40.466Z,6.17
2018-07-25T14:22:12.983Z,6.20
2018-07-25T14:24:44.371Z,6.20
2018-07-25T14:27:14.925Z,6.47
2018-07-25T14:29:45.423Z,6.47
2018-07-25T14:32:17.771Z,6.50
2018-07-25T14:34:48.580Z,6.80
2018-07-25T14:37:19.188Z,6.83
2018-07-25T14:39:50.344Z,6.10
2018-07-25T14:42:20.139Z,6.90
2018-07-25T14:44:50.449Z,5.87
2018-07-25T14:47:20.816Z,6.80
2018-07-25T14:49:51.510Z,6.10
2018-07-25T14:52:22.461Z,5.90
2018-07-25T14:54:52.922Z,5.93
2018-07-25T14:57:24.541Z,5.70
2018-07-25T14:59:55.140Z,5.57
2018-07-25T15:02:26.734Z,5.63
2018-07-25T15:04:56.975Z,5.70
2018-07-25T15:07:27.413Z,6.03
2018-07-25T15:09:58.696Z,5.40
2018-07-25T15:12:34.846Z,6.10
2018-07-25T15:15:06.507Z,5.83
2018-07-25T15:17:37.264Z,5.73
2018-07-25T15:20:09.543Z,6.13
2018-07-25T15:22:41.041Z,5.93
2018-07-25T15:25:11.599Z,5.83
2018-07-25T15:27:42.559Z,5.30
2018-07-25T15:30:13.815Z,4.80
2018-07-25T15:32:45.010Z,5.60
2018-07-25T15:35:15.697Z,4.10
2018-07-25T15:37:46.511Z,5.20
2018-07-25T15:40:18.224Z,5.20
2018-07-25T15:42:49.893Z,5.40
2018-07-25T15:45:21.509Z,6.00
2018-07-25T15:47:53.682Z,5.47
2018-07-25T15:50:24.990Z,4.70
2018-07-25T15:52:56.321Z,6.43
2018-07-25T15:55:28.002Z,5.80
2018-07-25T15:57:59.952Z,5.93
2018-07-25T16:00:30.927Z,5.40
2018-07-25T16:03:02.470Z,5.10
2018-07-25T16:05:33.682Z,5.43
2018-07-25T16:08:04.334Z,5.50
2018-07-25T16:10:34.742Z,5.47
2018-07-25T16:13:05.837Z,5.40
2018-07-25T16:15:36.630Z,5.83
2018-07-25T16:18:07.685Z,5.23
2018-07-25T16:20:38.185Z,6.47
2018-07-25T16:23:09.824Z,5.30
2018-07-25T16:25:40.426Z,4.90
2018-07-25T16:28:10.310Z,5.70
2018-07-25T16:30:41.183Z,5.33
2018-07-25T16:33:11.981Z,5.20
2018-07-25T16:35:43.127Z,5.23
2018-07-25T16:38:14.424Z,6.13
2018-07-25T16:40:45.630Z,6.10
2018-07-25T16:43:16.807Z,6.50
2018-07-25T16:45:47.193Z,6.23
2018-07-25T16:48:18.351Z,6.87
2018-07-25T16:50:49.451Z,7.47
2018-07-25T16:53:20.494Z,9.23
2018-07-25T16:55:51.493Z,9.63
2018-07-25T16:58:23.628Z,8.60
2018-07-25T17:00:55.087Z,9.77
2018-07-25T17:03:26.673Z,9.40
2018-07-25T17:05:57.119Z,9.90
2018-07-25T17:08:29.382Z,7.93
2018-07-25T17:10:59.883Z,8.13
2018-07-25T17:13:31.733Z,8.40
2018-07-25T17:16:02.934Z,7.43
2018-07-25T17:18:34.502Z,7.30
2018-07-25T17:21:05.897Z,5.80
2018-07-25T17:23:37.145Z,5.73
2018-07-25T17:26:09.372Z,5.60
2018-07-25T17:28:41.822Z,9.53
2018-07-25T17:31:12.867Z,6.30
2018-07-25T17:33:44.583Z,3.00
2018-07-25T17:36:15.883Z,3.27
2018-07-25T17:38:46.685Z,3.13
2018-07-25T17:41:17.928Z,3.57
2018-07-25T17:43:49.999Z,3.70
2018-07-25T17:46:20.674Z,3.03
2018-07-25T17:48:52.093Z,3.00
2018-07-25T17:51:23.117Z,3.20
2018-07-25T17:53:55.221Z,2.93
2018-07-25T17:56:26.837Z,3.70
2018-07-25T17:58:57.983Z,3.40
2018-07-25T18:01:29.721Z,3.43
2018-07-25T18:04:01.573Z,3.30
2018-07-25T18:06:33.006Z,8.23
2018-07-25T18:09:04.270Z,10.30
2018-07-25T18:11:35.351Z,5.10
2018-07-25T18:14:12.049Z,4.77
2018-07-25T18:16:44.749Z,5.33
2018-07-25T18:19:16.714Z,4.60
2018-07-25T18:21:48.545Z,4.57
2018-07-25T18:24:22.002Z,4.30
2018-07-25T18:26:52.787Z,3.93
2018-07-25T18:29:23.720Z,3.70
2018-07-25T18:31:55.536Z,3.87
2018-07-25T18:34:26.843Z,3.90
2018-07-25T18:36:58.923Z,4.30
2018-07-25T18:39:30.282Z,3.57
2018-07-25T18:42:01.386Z,4.17
2018-07-25T18:44:32.224Z,3.67
2018-07-25T18:47:03.781Z,3.83
2018-07-25T18:49:34.865Z,2.73
2018-07-25T18:52:06.100Z,3.20
2018-07-25T18:54:36.945Z,2.90
2018-07-25T18:57:06.925Z,3.30
2018-07-25T18:59:38.363Z,2.80
2018-07-25T19:02:08.582Z,2.50
2018-07-25T19:04:39.659Z,2.90
2018-07-25T19:07:11.114Z,2.33
2018-07-25T19:09:41.346Z,2.40
2018-07-25T19:12:13.351Z,2.00
2018-07-25T19:14:49.956Z,2.60
2018-07-25T19:17:21.138Z,2.27
2018-07-25T19:19:53.136Z,1.80
2018-07-25T19:22:24.708Z,1.83
2018-07-25T19:24:56.260Z,1.93
2018-07-25T19:27:27.243Z,1.43
2018-07-25T19:29:59.557Z,2.27
2018-07-25T19:32:30.920Z,2.10
2018-07-25T19:35:02.799Z,2.20
2018-07-25T19:37:34.691Z,1.67
2018-07-25T19:40:06.570Z,2.27
2018-07-25T19:42:37.946Z,1.87
2018-07-25T19:45:09.827Z,2.00
2018-07-25T19:47:41.261Z,2.40
2018-07-25T19:50:12.392Z,2.17
2018-07-25T19:52:43.258Z,2.60
2018-07-25T19:55:14.563Z,2.23
2018-07-25T19:57:45.360Z,2.70
2018-07-25T20:00:17.070Z,2.40
2018-07-25T20:02:47.609Z,2.83
2018-07-25T20:05:19.532Z,2.83
2018-07-25T20:07:49.997Z,2.60
2018-07-25T20:10:20.861Z,2.73
2018-07-25T20:12:52.882Z,3.30
2018-07-25T20:16:00.956Z,3.17
2018-07-25T20:18:32.572Z,2.87
2018-07-25T20:21:03.531Z,3.10
2018-07-25T20:23:34.496Z,2.90
2018-07-25T20:26:05.719Z,3.47
2018-07-25T20:28:36.107Z,3.53
2018-07-25T20:31:07.349Z,4.07
2018-07-25T20:33:38.455Z,3.97
2018-07-25T20:36:09.587Z,3.27
2018-07-25T20:38:40.597Z,3.30
2018-07-25T20:41:11.780Z,4.23
2018-07-25T20:43:43.073Z,3.70
2018-07-25T20:46:13.746Z,4.47
2018-07-25T20:48:44.925Z,3.53
2018-07-25T20:51:17.115Z,3.83
2018-07-25T20:53:48.509Z,3.47
2018-07-25T20:56:19.629Z,3.57
2018-07-25T20:58:50.194Z,3.40
2018-07-25T21:01:22.159Z,4.20
2018-07-25T21:03:52.853Z,4.40
2018-07-25T21:06:24.803Z,4.13
2018-07-25T21:08:55.030Z,4.20
2018-07-25T21:11:26.961Z,4.13
2018-07-25T21:13:56.773Z,5.00
2018-07-25T21:16:28.328Z,4.10
2018-07-25T21:18:59.579Z,4.73
2018-07-25T21:21:30.935Z,4.70
2018-07-25T21:24:02.208Z,4.40
2018-07-25T21:26:33.480Z,3.70
2018-07-25T21:29:04.445Z,4.50
2018-07-25T21:31:34.708Z,4.53
2018-07-25T21:34:05.795Z,3.90
2018-07-25T21:36:37.378Z,3.90
2018-07-25T21:39:11.974Z,4.53
2018-07-25T21:41:43.579Z,4.20
2018-07-25T21:44:14.175Z,4.30
2018-07-25T21:46:44.657Z,3.80
2018-07-25T21:49:15.968Z,4.40
2018-07-25T21:51:47.351Z,4.10
2018-07-25T21:54:18.766Z,4.30
2018-07-25T21:56:50.012Z,3.70
2018-07-25T21:59:20.565Z,3.97
2018-07-25T22:01:53.456Z,4.07
2018-07-25T22:04:24.409Z,4.30
2018-07-25T22:06:55.411Z,4.20
2018-07-25T22:09:26.553Z,4.10
2018-07-25T22:11:57.716Z,4.00
2018-07-25T22:14:28.706Z,4.93
2018-07-25T22:17:00.266Z,5.00
2018-07-25T22:19:30.566Z,4.57
2018-07-25T22:22:01.880Z,4.33
2018-07-25T22:24:31.797Z,4.07
2018-07-25T22:29:24.462Z,4.27
2018-07-25T22:31:55.077Z,4.53
2018-07-25T22:34:25.409Z,4.70
2018-07-25T22:36:56.056Z,4.90
2018-07-25T22:39:26.441Z,4.77
2018-07-25T22:41:57.301Z,5.30
2018-07-25T22:44:28.113Z,5.20
2018-07-25T22:46:58.472Z,5.13
2018-07-25T22:49:28.891Z,5.10
2018-07-25T22:51:59.735Z,5.17
2018-07-25T22:54:30.365Z,5.53
2018-07-25T22:57:00.507Z,5.00
2018-07-25T22:59:31.566Z,5.97
2018-07-25T23:02:02.093Z,5.00
2018-07-25T23:04:32.764Z,5.37
2018-07-25T23:07:03.548Z,4.57
2018-07-25T23:09:35.646Z,4.57
2018-07-25T23:12:06.696Z,4.90
2018-07-25T23:14:37.070Z,4.30
2018-07-25T23:17:08.309Z,5.13
2018-07-25T23:19:38.903Z,5.37
2018-07-25T23:22:09.767Z,4.30
2018-07-25T23:24:40.484Z,5.03
2018-07-25T23:27:11.043Z,4.70
2018-07-25T23:29:42.412Z,4.10
2018-07-25T23:32:12.616Z,4.80
2018-07-25T23:34:43.843Z,4.03
2018-07-25T23:37:15.678Z,4.17
2018-07-25T23:39:48.750Z,4.10
2018-07-25T23:42:18.982Z,4.27
2018-07-25T23:44:50.170Z,5.43
2018-07-25T23:47:20.957Z,4.73
2018-07-25T23:49:52.712Z,4.83
2018-07-25T23:52:23.972Z,4.90
2018-07-25T23:54:56.089Z,5.17
2018-07-25T23:57:26.579Z,4.13
2018-07-25T23:59:59.396Z,4.50
